sensor_id;sensor_type;location;lat;lon;timestamp;P1;durP1;ratioP1;P2;durP2;ratioP2
32325;SDS011;45767;52.316;5.040;2023-06-26T00:01:42;9.6;;;6.2;;
32325;SDS011;45767;52.316;5.040;2023-06-26T00:31:45;7.3;;;6.3;;
32325;SDS011;45767;52.316;5.040;2023-06-26T01:01:48;11.1;;;4.5;;
32325;SDS011;45767;52.316;5.040;2023-06-26T01:31:51;9.1;;;4.5;;
32325;SDS011;45767;52.316;5.040;2023-06-26T02:01:54;8.8;;;4.8;;
32325;SDS011;45767;52.316;5.040;2023-06-26T02:31:57;12.0;;;5.7;;
32325;SDS011;45767;52.316;5.040;2023-06-26T03:01:59;20.3;;;6.5;;
32325;SDS011;45767;52.316;5.040;2023-06-26T03:32:02;16.8;;;5.6;;
32325;SDS011;45767;52.316;5.040;2023-06-26T04:02:05;14.2;;;5.4;;
32325;SDS011;45767;52.316;5.040;2023-06-26T04:32:07;9.0;;;4.1;;
32325;SDS011;45767;52.316;5.040;2023-06-26T05:02:09;8.6;;;3.7;;
32325;SDS011;45767;52.316;5.040;2023-06-26T05:32:11;5.4;;;2.6;;
32325;SDS011;45767;52.316;5.040;2023-06-26T06:02:13;5.9;;;2.6;;
32325;SDS011;45767;52.316;5.040;2023-06-26T07:02:19;5.4;;;3.0;;
32325;SDS011;45767;52.316;5.040;2023-06-26T07:32:22;8.0;;;2.7;;
32325;SDS011;45767;52.316;5.040;2023-06-26T08:02:25;10.6;;;2.5;;
32325;SDS011;45767;52.316;5.040;2023-06-26T08:32:28;16.9;;;3.2;;
32325;SDS011;45767;52.316;5.040;2023-06-26T08:55:15;unavailable;;;unavailable;;
32325;SDS011;45767;52.316;5.040;2023-06-26T09:30:19;unknown;;;unknown;;
32325;SDS011;45767;52.316;5.040;2023-06-26T09:30:39;7.0;;;2.2;;
32325;SDS011;45767;52.316;5.040;2023-06-26T10:00:42;6.2;;;1.8;;
32325;SDS011;45767;52.316;5.040;2023-06-26T10:30:46;7.4;;;2.0;;
32325;SDS011;45767;52.316;5.040;2023-06-26T11:00:50;5.9;;;1.7;;
32325;SDS011;45767;52.316;5.040;2023-06-26T11:30:55;5.0;;;1.4;;
32325;SDS011;45767;52.316;5.040;2023-06-26T12:00:59;6.0;;;1.5;;
32325;SDS011;45767;52.316;5.040;2023-06-26T12:31:12;6.2;;;1.5;;
32325;SDS011;45767;52.316;5.040;2023-06-26T13:01:08;4.5;;;1.2;;
32325;SDS011;45767;52.316;5.040;2023-06-26T13:31:12;3.4;;;1.2;;
32325;SDS011;45767;52.316;5.040;2023-06-26T14:01:17;4.5;;;1.3;;
32325;SDS011;45767;52.316;5.040;2023-06-26T14:31:22;6.5;;;1.4;;
32325;SDS011;45767;52.316;5.040;2023-06-26T15:01:27;3.3;;;1.3;;
32325;SDS011;45767;52.316;5.040;2023-06-26T15:31:32;3.4;;;1.2;;
32325;SDS011;45767;52.316;5.040;2023-06-26T16:01:37;2.6;;;1.4;;
32325;SDS011;45767;52.316;5.040;2023-06-26T16:31:42;4.1;;;1.3;;
32325;SDS011;45767;52.316;5.040;2023-06-26T17:01:46;5.0;;;1.7;;
32325;SDS011;45767;52.316;5.040;2023-06-26T17:31:51;6.1;;;1.4;;
32325;SDS011;45767;52.316;5.040;2023-06-26T18:01:55;3.1;;;1.2;;
32325;SDS011;45767;52.316;5.040;2023-06-26T18:31:59;2.8;;;1.3;;
32325;SDS011;45767;52.316;5.040;2023-06-26T19:02:02;4.4;;;1.3;;
32325;SDS011;45767;52.316;5.040;2023-06-26T19:32:06;3.9;;;1.5;;
32325;SDS011;45767;52.316;5.040;2023-06-26T20:02:08;3.3;;;1.7;;
32325;SDS011;45767;52.316;5.040;2023-06-26T20:32:11;7.7;;;2.0;;
32325;SDS011;45767;52.316;5.040;2023-06-26T21:02:13;6.6;;;2.5;;
32325;SDS011;45767;52.316;5.040;2023-06-26T21:32:15;9.5;;;3.1;;
32325;SDS011;45767;52.316;5.040;2023-06-26T22:32:19;8.6;;;3.2;;
32325;SDS011;45767;52.316;5.040;2023-06-26T23:02:21;8.8;;;2.9;;
32325;SDS011;45767;52.316;5.040;2023-06-26T23:32:22;11.0;;;4.3;;
